Allanton, United Kingdom
Current Conditions -  °F | °C
As of 9:50 AM on Friday 28 Nov 2014 (Local Time) from EGQM Reporting Station
Haze Haze  
Wind Chill: 50°   Ceiling: 700
Heat Index: 50°   Visibility: 5mi
Dew Point: 50°   Wind: 10mph
Humidity: 100%   Direction: 110°ESE
Pressure: 29.77"   Gusts: NA
Location:  55.78°N, 2.22°W
Report Text: EGQM 280950Z AUTO 11009KT 8000 BR OVC007/// 10/10 Q1008
Loading
Personal Weather Stations






























Interactive Weather Map New forecast layout! Learn more

10-Day Weather Forecast

Advertisements
Track Severe Weather on mobile